Cranbrook Airport
CYXC : now visible

Airfield :











YOU CAN JOIN US ON...

 
LOGIN :

Register | Disclaimer

   EN    FR    IT 

 









Legend :    VFR   Marginal VFR   IFR   Intensive IFR   Very Intensive IFR
Visi :
Ceiling :
>= 8 km
>= 3000ft
5 to 8 km
1000 to 3000 ft
1500m to 5 km
500 to 1000 ft
800 to 1500m
200 to 500 ft
< 800m
< 200 ft
Symbols :   Thunderstorms  Fog  Heavy snow  Heavy precipitations  Wind > 20 kt






- Airport Elevation : 3082 ft
- IATA code : YXC


CYXC - Cranbrook

CURRENT METAR :
  • 220000Z 34008KT 300V360 20SM -SHSN FEW015 BKN032TCU OVC080 01/M01 A3007 RMK CF1TCU7AC1 CF TR VIS N 5 SLP218

EXPIRED METARs :
  • 212348Z 31006KT 25SM -SHSN FEW015 BKN032TCU BKN080 01/M02 A3007 RMK CF1TCU5AC2 CF TR VIS N 10 SLP215
  • 212300Z 17005KT 25SM VCSH SCT035TCU BKN080 BKN140 03/M04 A3004 RMK TCU4AC3AC1 AC TR VIS N 10 SLP203
  • 212200Z VRB06KT 25SM VCSH SCT032TCU BKN090 BKN150 04/M02 A3001 RMK TCU3AC2AC2 SLP193
  • 212139Z 12003KT 070V180 20SM -SHGSSN SCT032TCU BKN100 03/M03 A3001 RMK TCU4AC3 SLP194

TAF TAF CYXC
Valid from the 21 at 19:00 until the 22 at 07:00 UTC


211838Z 2119/2207 01005KT P6SM FEW006 BKN060
TEMPO 2119/2122 3SM -SNRA BR SCT006 BKN020
FM212200 08006KT P6SM FEW020 SCT060 RMK NXT FCST BY 220100Z
CZVR FIR / North America



MET'MAP, your aeronautical weather chart ! - Copyright ORBIFLY December 2007 - Disclaimer

ORBIFLY MET'MAP TEAM :

Programming & Development : Alexandra Zaïnal
Concept & original design : Baudouin d'Aumeries
Assistance for programming : Marc-Olivier Méhu
Technical & hardware support : Manuel Goepfert

Contact : metmap@orbifly.com




SOURCES & CREDITS :

   NOAA       Earth
Advisory